^^
Saratoga-Weather Station Historical Data
Daily Summary for December 22, 2021 Units:  Metric    English   Both
Daily Weekly Monthly Yearly Custom
  High: Low: Average:
Temperature: -0.3 °C -5.1 °C -2.9 °C
Dew Point: -2.3 °C -5.9 °C -4.1 °C
Humidity: 94% 85% 91%
Wind Speed: 4.7km/h 0km/h 0.9km/h
Wind Gust: 12.9km/h - -
Wind- - ESE
Pressure: 1025.4 hPa 1020.3 hPa -
Precipitation: 0.0 mm    
Historical Graphs
 
 
Tabular Data for December 22, 2021
Time Temperature Dew Point Pressure Wind Wind Speed Wind Gust Humidity Rainfall Rate (Hourly) solar
08:35 -4.5 °C -5.3 °C 1025.1 hPa Calm     94% 0.0 mm 5 W/m2
08:47 -4.4 °C -5.2 °C 1025.1 hPa Calm     94% 0.0 mm 12 W/m2
08:52 -4.3 °C -5.1 °C 1025.1 hPa ESE 3.2 km/h 3.2 km/h 94% 0.0 mm 16 W/m2
08:57 -4.3 °C -5.1 °C 1025.4 hPa Calm     94% 0.0 mm 18 W/m2
09:02 -4.2 °C -5 °C 1025.4 hPa ESE 1.4 km/h 1.6 km/h 94% 0.0 mm 19 W/m2
09:07 -4.2 °C -5 °C 1025.4 hPa ESE 1.4 km/h 1.6 km/h 94% 0.0 mm 23 W/m2
09:12 -4.1 °C -4.9 °C 1025.4 hPa Calm     94% 0.0 mm 28 W/m2
09:17 -4.1 °C -4.9 °C 1025.4 hPa ESE 1.4 km/h 1.6 km/h 94% 0.0 mm 30 W/m2
09:22 -4 °C -4.8 °C 1025.4 hPa Calm     94% 0.0 mm 32 W/m2
09:27 -3.9 °C -4.7 °C 1025.4 hPa Calm     94% 0.0 mm 35 W/m2
09:32 -3.8 °C -4.6 °C 1025.4 hPa Calm   3.2 km/h 94% 0.0 mm 35 W/m2
09:37 -3.7 °C -4.5 °C 1025.4 hPa ESE 1.4 km/h 3.2 km/h 94% 0.0 mm 33 W/m2
09:42 -3.6 °C -4.4 °C 1025.4 hPa Calm   4.8 km/h 94% 0.0 mm 30 W/m2
09:47 -3.6 °C -4.4 °C 1025.4 hPa Calm   1.6 km/h 94% 0.0 mm 30 W/m2
09:52 -3.5 °C -4.3 °C 1025.4 hPa Calm     94% 0.0 mm 33 W/m2
09:57 -3.5 °C -4.3 °C 1025.4 hPa Calm   1.6 km/h 94% 0.0 mm 33 W/m2
10:02 -3.5 °C -4.3 °C 1025.4 hPa Calm   1.6 km/h 94% 0.0 mm 32 W/m2
10:07 -3.4 °C -4.2 °C 1025.4 hPa Calm   1.6 km/h 94% 0.0 mm 33 W/m2
10:12 -3.4 °C -4.2 °C 1025.1 hPa Calm     94% 0.0 mm 37 W/m2
10:17 -3.4 °C -4.4 °C 1025.1 hPa East 1.4 km/h 1.6 km/h 93% 0.0 mm 46 W/m2
10:22 -3.3 °C -4.3 °C 1025.1 hPa East 1.4 km/h 3.2 km/h 93% 0.0 mm 42 W/m2
10:27 -3.2 °C -4 °C 1025.1 hPa East 3.2 km/h 3.2 km/h 94% 0.0 mm 42 W/m2
10:32 -3.2 °C -4.2 °C 1025.1 hPa ESE 1.4 km/h 3.2 km/h 93% 0.0 mm 51 W/m2
10:37 -3 °C -4 °C 1025.1 hPa Calm   4.8 km/h 93% 0.0 mm 49 W/m2
10:42 -2.9 °C -3.9 °C 1025.1 hPa Calm     93% 0.0 mm 51 W/m2
10:47 -2.8 °C -3.8 °C 1025.1 hPa Calm   4.8 km/h 93% 0.0 mm 54 W/m2
10:52 -2.7 °C -3.7 °C 1025.1 hPa Calm     93% 0.0 mm 54 W/m2
10:57 -2.7 °C -3.7 °C 1025.1 hPa Calm   1.6 km/h 93% 0.0 mm 56 W/m2
11:02 -2.6 °C -3.6 °C 1025.1 hPa ENE 1.4 km/h 1.6 km/h 93% 0.0 mm 60 W/m2
11:07 -2.4 °C -3.4 °C 1025.1 hPa ENE 3.2 km/h 4.8 km/h 93% 0.0 mm 62 W/m2
11:12 -2.3 °C -3.4 °C 1025.1 hPa ENE 3.2 km/h 4.8 km/h 92% 0.0 mm 60 W/m2
11:17 -2.2 °C -3.3 °C 1025.1 hPa East 1.4 km/h 3.2 km/h 92% 0.0 mm 60 W/m2
11:22 -2.1 °C -3.2 °C 1025.1 hPa Calm   1.6 km/h 92% 0.0 mm 62 W/m2
11:27 -1.9 °C -3.2 °C 1025.1 hPa Calm   6.4 km/h 91% 0.0 mm 62 W/m2
11:32 -1.8 °C -3.1 °C 1024.7 hPa ENE 3.2 km/h 4.8 km/h 91% 0.0 mm 58 W/m2
11:37 -1.8 °C -3.1 °C 1024.7 hPa East 3.2 km/h 3.2 km/h 91% 0.0 mm 60 W/m2
11:42 -1.7 °C -3.1 °C 1024.7 hPa ESE 4.7 km/h 4.8 km/h 90% 0.0 mm 65 W/m2
11:47 -1.6 °C -3 °C 1024.7 hPa Calm   4.8 km/h 90% 0.0 mm 58 W/m2
11:52 -1.6 °C -3 °C 1024.7 hPa East 3.2 km/h 3.2 km/h 90% 0.0 mm 56 W/m2
11:57 -1.5 °C -2.9 °C 1024.4 hPa Calm   6.4 km/h 90% 0.0 mm 58 W/m2
12:02 -1.4 °C -2.8 °C 1024.4 hPa Calm   3.2 km/h 90% 0.0 mm 51 W/m2
12:07 -1.4 °C -3 °C 1024.4 hPa East 4.7 km/h 4.8 km/h 89% 0.0 mm 53 W/m2
12:13 -1.3 °C -2.9 °C 1024.4 hPa Calm   3.2 km/h 89% 0.0 mm 56 W/m2
12:18 -1.3 °C -2.9 °C 1024.4 hPa Calm   4.8 km/h 89% 0.0 mm 60 W/m2
12:23 -1.2 °C -2.8 °C 1024.0 hPa East 3.2 km/h 3.2 km/h 89% 0.0 mm 63 W/m2
12:28 -1.2 °C -2.8 °C 1024.0 hPa East 3.2 km/h 4.8 km/h 89% 0.0 mm 63 W/m2
12:33 -1.1 °C -2.7 °C 1024.0 hPa ESE 1.4 km/h 4.8 km/h 89% 0.0 mm 62 W/m2
12:38 -1 °C -2.6 °C 1024.0 hPa ESE 1.4 km/h 6.4 km/h 89% 0.0 mm 60 W/m2
12:43 -0.9 °C -2.6 °C 1024.0 hPa East 1.4 km/h 3.2 km/h 88% 0.0 mm 49 W/m2
12:48 -0.8 °C -2.5 °C 1023.7 hPa SE 1.4 km/h 3.2 km/h 88% 0.0 mm 49 W/m2
12:53 -0.7 °C -2.4 °C 1023.7 hPa ESE 1.4 km/h 3.2 km/h 88% 0.0 mm 47 W/m2
12:58 -0.6 °C -2.3 °C 1023.7 hPa East 1.4 km/h 6.4 km/h 88% 0.0 mm 44 W/m2
13:03 -0.5 °C -2.4 °C 1023.7 hPa East 4.7 km/h 6.4 km/h 87% 0.0 mm 39 W/m2
13:08 -0.4 °C -2.5 °C 1023.7 hPa SE 1.4 km/h 11.3 km/h 86% 0.0 mm 35 W/m2
13:13 -0.4 °C -2.5 °C 1023.7 hPa East 1.4 km/h 6.4 km/h 86% 0.0 mm 37 W/m2
13:18 -0.3 °C -2.5 °C 1023.7 hPa Calm   11.3 km/h 85% 0.0 mm 35 W/m2
13:23 -0.4 °C -2.6 °C 1023.7 hPa ESE 3.2 km/h 4.8 km/h 85% 0.0 mm 35 W/m2
13:28 -0.4 °C -2.5 °C 1023.4 hPa Calm   6.4 km/h 86% 0.0 mm 35 W/m2
13:33 -0.4 °C -2.5 °C 1023.4 hPa Calm   1.6 km/h 86% 0.0 mm 37 W/m2
13:38 -0.6 °C -2.7 °C 1023.4 hPa ESE 1.4 km/h 6.4 km/h 86% 0.0 mm 37 W/m2
13:43 -0.6 °C -2.7 °C 1023.4 hPa South 1.4 km/h 6.4 km/h 86% 0.0 mm 37 W/m2
13:48 -0.7 °C -2.6 °C 1023.4 hPa SE 1.4 km/h 3.2 km/h 87% 0.0 mm 42 W/m2
13:53 -0.7 °C -2.6 °C 1023.4 hPa ESE 1.4 km/h 11.3 km/h 87% 0.0 mm 44 W/m2
13:58 -0.8 °C -2.7 °C 1023.4 hPa ESE 1.4 km/h 4.8 km/h 87% 0.0 mm 46 W/m2
14:08 -0.8 °C -2.7 °C 1023.4 hPa Calm   3.2 km/h 87% 0.0 mm 42 W/m2
14:13 -0.8 °C -2.7 °C 1023.0 hPa Calm   3.2 km/h 87% 0.0 mm 39 W/m2
14:18 -0.8 °C -2.7 °C 1023.0 hPa ESE 4.7 km/h 4.8 km/h 87% 0.0 mm 37 W/m2
14:23 -0.9 °C -2.8 °C 1023.0 hPa Calm   1.6 km/h 87% 0.0 mm 37 W/m2
14:28 -0.8 °C -2.7 °C 1023.0 hPa SE 4.7 km/h 6.4 km/h 87% 0.0 mm 35 W/m2
14:33 -0.9 °C -2.8 °C 1023.0 hPa ESE 1.4 km/h 4.8 km/h 87% 0.0 mm 30 W/m2
14:38 -0.9 °C -2.8 °C 1022.7 hPa ESE 1.4 km/h 4.8 km/h 87% 0.0 mm 28 W/m2
14:43 -1 °C -2.9 °C 1023.0 hPa Calm   3.2 km/h 87% 0.0 mm 25 W/m2
14:48 -1.1 °C -3 °C 1023.0 hPa East 1.4 km/h 1.6 km/h 87% 0.0 mm 23 W/m2
14:53 -1.2 °C -2.9 °C 1023.0 hPa Calm   1.6 km/h 88% 0.0 mm 26 W/m2
14:58 -1.2 °C -2.9 °C 1023.0 hPa ESE 4.7 km/h 4.8 km/h 88% 0.0 mm 28 W/m2
15:03 -1.3 °C -3 °C 1022.7 hPa Calm   9.7 km/h 88% 0.0 mm 26 W/m2
15:08 -1.3 °C -3 °C 1023.0 hPa SSE 1.4 km/h 1.6 km/h 88% 0.0 mm 26 W/m2
15:13 -1.4 °C -3.1 °C 1023.0 hPa East 3.2 km/h 6.4 km/h 88% 0.0 mm 26 W/m2
15:18 -1.4 °C -3.1 °C 1022.7 hPa ESE 1.4 km/h 4.8 km/h 88% 0.0 mm 25 W/m2
15:23 -1.4 °C -3.1 °C 1022.7 hPa ESE 1.4 km/h 1.6 km/h 88% 0.0 mm 25 W/m2
15:28 -1.4 °C -3.1 °C 1022.7 hPa ESE 3.2 km/h 4.8 km/h 88% 0.0 mm 26 W/m2
15:33 -1.5 °C -3.1 °C 1022.7 hPa East 1.4 km/h 3.2 km/h 89% 0.0 mm 25 W/m2
15:38 -1.5 °C -3.2 °C 1022.7 hPa ESE 1.4 km/h 6.4 km/h 88% 0.0 mm 23 W/m2
15:43 -1.6 °C -3.3 °C 1022.7 hPa Calm   3.2 km/h 88% 0.0 mm 23 W/m2
15:48 -1.6 °C -3.2 °C 1022.7 hPa SE 3.2 km/h 6.4 km/h 89% 0.0 mm 21 W/m2
15:53 -1.6 °C -3.2 °C 1022.7 hPa Calm   3.2 km/h 89% 0.0 mm 19 W/m2
15:58 -1.7 °C -3.3 °C 1022.7 hPa ESE 1.4 km/h 3.2 km/h 89% 0.0 mm 18 W/m2
16:03 -1.7 °C -3.3 °C 1022.7 hPa Calm   3.2 km/h 89% 0.0 mm 16 W/m2
16:08 -1.8 °C -3.4 °C 1022.7 hPa Calm   3.2 km/h 89% 0.0 mm 14 W/m2
16:13 -1.9 °C -3.5 °C 1022.7 hPa Calm     89% 0.0 mm 11 W/m2
16:18 -2 °C -3.6 °C 1022.7 hPa Calm   3.2 km/h 89% 0.0 mm 9 W/m2
16:23 -2.1 °C -3.7 °C 1022.7 hPa Calm   1.6 km/h 89% 0.0 mm 7 W/m2
16:28 -2.2 °C -3.8 °C 1022.4 hPa Calm   1.6 km/h 89% 0.0 mm 5 W/m2
16:33 -2.3 °C -3.9 °C 1022.7 hPa Calm   1.6 km/h 89% 0.0 mm 0 W/m2
16:38 -2.4 °C -4 °C 1022.4 hPa Calm     89% 0.0 mm 0 W/m2
16:43 -2.5 °C -3.9 °C 1022.4 hPa Calm   3.2 km/h 90% 0.0 mm 0 W/m2
16:48 -2.6 °C -4 °C 1022.4 hPa Calm   1.6 km/h 90% 0.0 mm 0 W/m2
16:53 -2.7 °C -4.1 °C 1022.4 hPa ESE 1.4 km/h 3.2 km/h 90% 0.0 mm 0 W/m2
16:58 -2.8 °C -4.2 °C 1022.4 hPa SSE 1.4 km/h 1.6 km/h 90% 0.0 mm 0 W/m2
17:03 -2.8 °C -4.1 °C 1022.4 hPa Calm   3.2 km/h 91% 0.0 mm 0 W/m2
17:08 -2.8 °C -4.1 °C 1022.4 hPa ENE 1.4 km/h 12.9 km/h 91% 0.0 mm 0 W/m2
17:13 -2.7 °C -4 °C 1022.4 hPa ESE 1.4 km/h 4.8 km/h 91% 0.0 mm 0 W/m2
17:18 -2.7 °C -4 °C 1022.4 hPa ESE 1.4 km/h 12.9 km/h 91% 0.0 mm 0 W/m2
17:23 -2.7 °C -4 °C 1022.4 hPa Calm   3.2 km/h 91% 0.0 mm 0 W/m2
17:28 -2.7 °C -4 °C 1022.4 hPa East 3.2 km/h 9.7 km/h 91% 0.0 mm 0 W/m2
17:33 -2.7 °C -4 °C 1022.4 hPa ESE 3.2 km/h 6.4 km/h 91% 0.0 mm 0 W/m2
17:38 -2.7 °C -4 °C 1022.4 hPa Calm   1.6 km/h 91% 0.0 mm 0 W/m2
17:43 -2.7 °C -4 °C 1022.4 hPa Calm   6.4 km/h 91% 0.0 mm 0 W/m2
17:48 -2.8 °C -4.1 °C 1022.4 hPa Calm   1.6 km/h 91% 0.0 mm 0 W/m2
17:53 -2.9 °C -4.2 °C 1022.4 hPa SE 1.4 km/h 1.6 km/h 91% 0.0 mm 0 W/m2
17:58 -3 °C -4.3 °C 1022.4 hPa Calm   1.6 km/h 91% 0.0 mm 0 W/m2
18:03 -3.1 °C -4.4 °C 1022.4 hPa Calm   3.2 km/h 91% 0.0 mm 0 W/m2
18:08 -3.2 °C -4.5 °C 1022.4 hPa Calm     91% 0.0 mm 0 W/m2
18:13 -3.3 °C -4.6 °C 1022.4 hPa Calm   3.2 km/h 91% 0.0 mm 0 W/m2
18:18 -3.3 °C -4.6 °C 1022.4 hPa Calm     91% 0.0 mm 0 W/m2
18:23 -3.4 °C -4.7 °C 1022.0 hPa Calm   1.6 km/h 91% 0.0 mm 0 W/m2
18:28 -3.6 °C -4.9 °C 1022.4 hPa Calm     91% 0.0 mm 0 W/m2
18:33 -3.6 °C -4.7 °C 1022.4 hPa Calm   3.2 km/h 92% 0.0 mm 0 W/m2
18:38 -3.6 °C -4.7 °C 1022.0 hPa Calm     92% 0.0 mm 0 W/m2
18:43 -3.7 °C -4.8 °C 1022.0 hPa Calm   3.2 km/h 92% 0.0 mm 0 W/m2
18:48 -3.7 °C -4.8 °C 1022.0 hPa Calm     92% 0.0 mm 0 W/m2
18:53 -3.8 °C -4.9 °C 1022.0 hPa Calm   1.6 km/h 92% 0.0 mm 0 W/m2
18:58 -3.8 °C -4.9 °C 1022.0 hPa Calm   1.6 km/h 92% 0.0 mm 0 W/m2
19:03 -3.9 °C -5 °C 1022.0 hPa Calm   6.4 km/h 92% 0.0 mm 0 W/m2
19:08 -3.9 °C -4.9 °C 1021.7 hPa Calm   1.6 km/h 93% 0.0 mm 0 W/m2
19:13 -3.9 °C -4.9 °C 1021.7 hPa ESE 3.2 km/h 4.8 km/h 93% 0.0 mm 0 W/m2
19:18 -3.8 °C -4.8 °C 1021.7 hPa ESE 3.2 km/h 4.8 km/h 93% 0.0 mm 0 W/m2
19:23 -3.7 °C -4.7 °C 1021.7 hPa SSE 1.4 km/h 1.6 km/h 93% 0.0 mm 0 W/m2
19:28 -3.7 °C -4.7 °C 1021.7 hPa Calm   4.8 km/h 93% 0.0 mm 0 W/m2
19:33 -3.7 °C -4.7 °C 1021.7 hPa ESE 1.4 km/h 6.4 km/h 93% 0.0 mm 0 W/m2
19:38 -3.8 °C -4.8 °C 1021.7 hPa Calm   4.8 km/h 93% 0.0 mm 0 W/m2
19:43 -3.8 °C -4.8 °C 1021.7 hPa Calm   6.4 km/h 93% 0.0 mm 0 W/m2
19:48 -3.8 °C -4.8 °C 1021.7 hPa Calm   9.7 km/h 93% 0.0 mm 0 W/m2
19:53 -3.8 °C -4.8 °C 1021.3 hPa SE 1.4 km/h 4.8 km/h 93% 0.0 mm 0 W/m2
19:58 -3.8 °C -4.8 °C 1021.7 hPa SSE 1.4 km/h 9.7 km/h 93% 0.0 mm 0 W/m2
20:03 -3.8 °C -4.8 °C 1021.7 hPa Calm   3.2 km/h 93% 0.0 mm 0 W/m2
20:08 -3.7 °C -4.7 °C 1021.7 hPa ESE 1.4 km/h 1.6 km/h 93% 0.0 mm 0 W/m2
20:13 -3.7 °C -4.7 °C 1021.7 hPa SSE 4.7 km/h 6.4 km/h 93% 0.0 mm 0 W/m2
20:18 -3.7 °C -4.5 °C 1021.7 hPa ESE 4.7 km/h 4.8 km/h 94% 0.0 mm 0 W/m2
20:23 -3.6 °C -4.4 °C 1021.7 hPa SE 4.7 km/h 8 km/h 94% 0.0 mm 0 W/m2
20:28 -3.4 °C -4.2 °C 1021.7 hPa ESE 4.7 km/h 4.8 km/h 94% 0.0 mm 0 W/m2
20:33 -3.4 °C -4.2 °C 1021.7 hPa Calm   8 km/h 94% 0.0 mm 0 W/m2
20:38 -3.4 °C -4.2 °C 1021.3 hPa Calm   3.2 km/h 94% 0.0 mm 0 W/m2
20:43 -3.4 °C -4.2 °C 1021.3 hPa Calm     94% 0.0 mm 0 W/m2
20:48 -3.4 °C -4.2 °C 1021.3 hPa Calm     94% 0.0 mm 0 W/m2
20:53 -3.4 °C -4.2 °C 1021.3 hPa East 1.4 km/h 1.6 km/h 94% 0.0 mm 0 W/m2
20:58 -3.4 °C -4.2 °C 1021.3 hPa Calm   3.2 km/h 94% 0.0 mm 0 W/m2
21:03 -3.4 °C -4.2 °C 1021.3 hPa Calm     94% 0.0 mm 0 W/m2
21:08 -3.5 °C -4.3 °C 1021.3 hPa Calm     94% 0.0 mm 0 W/m2
21:14 -3.6 °C -4.4 °C 1021.3 hPa Calm     94% 0.0 mm 0 W/m2
21:19 -3.6 °C -4.4 °C 1021.3 hPa Calm     94% 0.0 mm 0 W/m2
21:24 -3.7 °C -4.7 °C 1021.0 hPa Calm     93% 0.0 mm 0 W/m2
21:29 -3.8 °C -4.8 °C 1021.0 hPa Calm     93% 0.0 mm 0 W/m2
21:34 -3.9 °C -4.9 °C 1021.3 hPa Calm     93% 0.0 mm 0 W/m2
21:39 -3.9 °C -4.9 °C 1021.3 hPa Calm     93% 0.0 mm 0 W/m2
21:44 -4.1 °C -5.1 °C 1021.0 hPa Calm     93% 0.0 mm 0 W/m2
21:49 -4.2 °C -5.2 °C 1021.0 hPa Calm     93% 0.0 mm 0 W/m2
21:54 -4.2 °C -5.2 °C 1021.0 hPa Calm     93% 0.0 mm 0 W/m2
21:59 -4.3 °C -5.3 °C 1021.0 hPa Calm     93% 0.0 mm 0 W/m2
22:04 -4.3 °C -5.3 °C 1021.0 hPa Calm     93% 0.0 mm 0 W/m2
22:09 -4.4 °C -5.4 °C 1021.0 hPa Calm     93% 0.0 mm 0 W/m2
22:14 -4.4 °C -5.2 °C 1021.0 hPa Calm     94% 0.0 mm 0 W/m2
22:19 -4.5 °C -5.3 °C 1021.0 hPa Calm     94% 0.0 mm 0 W/m2
22:24 -4.6 °C -5.4 °C 1020.7 hPa Calm     94% 0.0 mm 0 W/m2
22:29 -4.6 °C -5.4 °C 1020.7 hPa Calm     94% 0.0 mm 0 W/m2
22:34 -4.7 °C -5.7 °C 1020.7 hPa Calm     93% 0.0 mm 0 W/m2
22:39 -4.7 °C -5.7 °C 1020.7 hPa Calm     93% 0.0 mm 0 W/m2
22:44 -4.7 °C -5.5 °C 1020.3 hPa Calm     94% 0.0 mm 0 W/m2
22:49 -4.8 °C -5.6 °C 1020.3 hPa Calm     94% 0.0 mm 0 W/m2
22:54 -4.8 °C -5.6 °C 1020.3 hPa Calm     94% 0.0 mm 0 W/m2
22:59 -4.8 °C -5.6 °C 1020.7 hPa Calm     94% 0.0 mm 0 W/m2
23:04 -4.8 °C -5.6 °C 1020.7 hPa Calm     94% 0.0 mm 0 W/m2
23:09 -4.9 °C -5.7 °C 1020.7 hPa Calm     94% 0.0 mm 0 W/m2
23:14 -4.9 °C -5.7 °C 1020.3 hPa Calm     94% 0.0 mm 0 W/m2
23:19 -4.9 °C -5.7 °C 1020.7 hPa Calm     94% 0.0 mm 0 W/m2
23:24 -5 °C -5.8 °C 1020.7 hPa Calm     94% 0.0 mm 0 W/m2
23:29 -5 °C -5.8 °C 1020.3 hPa Calm     94% 0.0 mm 0 W/m2
23:34 -5 °C -5.8 °C 1020.3 hPa Calm     94% 0.0 mm 0 W/m2
23:39 -5.1 °C -5.9 °C 1020.3 hPa Calm     94% 0.0 mm 0 W/m2
23:44 -5.1 °C -5.9 °C 1020.3 hPa Calm     94% 0.0 mm 0 W/m2
23:49 -5.1 °C -5.9 °C 1020.3 hPa Calm     94% 0.0 mm 0 W/m2
23:54 -5.1 °C -5.9 °C 1020.3 hPa Calm     94% 0.0 mm 0 W/m2
23:59 -5 °C -5.8 °C 1020.3 hPa Calm     94% 0.0 mm 0 W/m2
Juneau County Weather
Compliments of Weather Underground - 4 mb